Time;durP1;ratioP1;P1;durP2;ratioP2;P2;SDS_P1;SDS_P2;PMS_P1;PMS_P2;Temp;Humidity;BMP_temperature;BMP_pressure;BME280_temperature;BME280_humidity;BME280_pressure;Samples;Min_cycle;Max_cycle;Signal;HPM_P1;HPM_P2
2021/05/26 00:00:53;;;;;;;2.83;0.70;;;;;;;8.34;63.05;96370.22;5073574;28;20093;-78
2021/05/26 00:03:19;;;;;;;8.33;2.20;;;;;;;8.36;63.35;96365.66;5049465;28;20039;-77
2021/05/26 00:05:51;;;;;;;8.60;2.67;;;;;;;8.46;62.49;96368.28;5056221;28;20032;-77
2021/05/26 00:08:28;;;;;;;3.80;0.90;;;;;;;8.37;63.61;96366.47;5074213;28;20023;-77
2021/05/26 00:10:55;;;;;;;3.23;0.63;;;;;;;8.37;63.39;96364.69;5055432;28;20028;-77
2021/05/26 00:13:21;;;;;;;3.53;0.90;;;;;;;8.44;63.21;96359.72;5058655;28;20083;-76
2021/05/26 00:15:48;;;;;;;2.57;0.80;;;;;;;8.43;63.39;96358.91;5058365;28;20028;-77
2021/05/26 00:18:13;;;;;;;1.47;0.60;;;;;;;8.50;63.45;96354.75;5061568;28;20313;-77
2021/05/26 00:20:39;;;;;;;5.53;1.00;;;;;;;8.47;63.02;96344.53;5074783;28;20024;-77
2021/05/26 00:23:05;;;;;;;4.57;1.10;;;;;;;8.50;63.24;96351.31;5060555;28;20822;-77
2021/05/26 00:25:31;;;;;;;3.70;1.67;;;;;;;8.45;63.65;96357.00;5066824;28;20031;-77
2021/05/26 00:27:59;;;;;;;2.73;0.60;;;;;;;8.42;64.25;96353.81;5072843;28;20116;-77
2021/05/26 00:30:29;;;;;;;2.23;0.57;;;;;;;8.52;64.04;96346.75;5067672;28;20027;-77
2021/05/26 00:32:56;;;;;;;3.27;1.03;;;;;;;8.61;63.37;96350.28;5059837;28;20605;-78
2021/05/26 00:35:23;;;;;;;3.47;1.03;;;;;;;8.64;63.44;96336.91;5069614;28;20016;-77
2021/05/26 00:37:49;;;;;;;3.77;1.03;;;;;;;8.59;64.27;96341.78;5082126;28;20758;-78
2021/05/26 00:40:15;;;;;;;6.13;2.30;;;;;;;8.59;64.14;96336.53;5056329;28;20025;-77
2021/05/26 00:42:41;;;;;;;3.27;0.97;;;;;;;8.61;64.62;96331.94;5060657;28;20489;-77
2021/05/26 00:45:11;;;;;;;4.23;1.00;;;;;;;8.61;64.39;96335.38;5102816;28;20031;-77
2021/05/26 00:47:48;;;;;;;2.77;0.90;;;;;;;8.61;64.67;96330.16;5084723;28;20542;-77
2021/05/26 00:50:26;;;;;;;2.57;0.60;;;;;;;8.62;64.87;96337.06;5066786;28;20047;-77
2021/05/26 00:52:57;;;;;;;4.17;0.90;;;;;;;8.68;65.01;96335.63;5085803;28;20027;-78
2021/05/26 00:55:23;;;;;;;3.93;1.00;;;;;;;8.69;64.84;96332.06;5078790;28;20036;-77
2021/05/26 00:57:50;;;;;;;1.90;0.73;;;;;;;8.77;64.83;96323.47;5058337;28;20081;-77
2021/05/26 01:00:23;;;;;;;4.47;0.70;;;;;;;8.77;64.91;96326.91;5061970;28;20489;-77
2021/05/26 01:02:56;;;;;;;4.17;0.80;;;;;;;8.83;64.82;96328.13;5065631;28;20940;-77
2021/05/26 01:05:23;;;;;;;4.60;1.53;;;;;;;8.80;65.14;96317.94;5073533;28;20035;-77
2021/05/26 01:07:54;;;;;;;2.70;0.80;;;;;;;8.80;65.06;96308.25;5071889;28;20035;-77
2021/05/26 01:10:23;;;;;;;3.93;0.73;;;;;;;8.81;65.34;96312.53;5083003;28;20431;-78
2021/05/26 01:13:06;;;;;;;1.53;0.70;;;;;;;8.78;65.97;96315.44;5070538;28;20686;-79
2021/05/26 01:15:32;;;;;;;6.27;1.57;;;;;;;8.77;66.10;96312.97;5054858;28;20028;-77
2021/05/26 01:18:19;;;;;;;3.63;0.97;;;;;;;8.74;65.86;96314.09;5063662;28;20098;-78
2021/05/26 01:20:49;;;;;;;2.70;1.00;;;;;;;8.77;66.07;96311.16;5059764;28;20064;-77
2021/05/26 01:23:17;;;;;;;1.53;0.73;;;;;;;8.73;66.33;96302.78;5061474;28;20085;-77
2021/05/26 01:25:58;;;;;;;2.77;0.70;;;;;;;8.71;66.70;96299.47;5106008;28;20396;-77
2021/05/26 01:28:26;;;;;;;4.87;1.00;;;;;;;8.74;66.47;96287.88;5068789;28;20044;-77
2021/05/26 01:30:53;;;;;;;6.83;1.17;;;;;;;8.72;66.43;96285.41;5073015;28;20016;-77
2021/05/26 01:33:19;;;;;;;3.13;0.70;;;;;;;8.74;66.58;96290.47;5068528;28;20034;-77
2021/05/26 01:35:47;;;;;;;1.80;0.50;;;;;;;8.71;66.94;96278.50;5077770;28;20484;-77
2021/05/26 01:38:15;;;;;;;4.57;1.20;;;;;;;8.72;66.58;96280.16;5071445;28;20123;-77
2021/05/26 01:40:41;;;;;;;2.83;0.90;;;;;;;8.65;67.04;96267.75;5081948;28;20067;-77
2021/05/26 01:43:07;;;;;;;1.60;0.70;;;;;;;8.71;66.72;96270.63;5069321;28;20441;-77
2021/05/26 01:45:33;;;;;;;2.90;0.70;;;;;;;8.78;66.34;96264.78;5057483;28;20031;-77
2021/05/26 01:47:59;;;;;;;1.50;0.57;;;;;;;8.76;66.58;96269.38;5078145;28;20035;-77
2021/05/26 01:50:25;;;;;;;4.37;0.80;;;;;;;8.81;66.46;96270.56;5061055;28;20097;-77
2021/05/26 01:53:06;;;;;;;3.43;0.70;;;;;;;8.87;67.18;96267.38;5067086;28;20024;-77
2021/05/26 01:55:36;;;;;;;1.43;0.60;;;;;;;8.92;67.61;96269.53;5068694;28;20036;-77
2021/05/26 01:58:04;;;;;;;3.30;0.80;;;;;;;8.81;68.99;96275.00;5066078;28;20411;-77
2021/05/26 02:00:38;;;;;;;0.87;0.37;;;;;;;8.69;70.60;96283.06;5059077;28;20448;-77
2021/05/26 02:03:10;;;;;;;3.53;0.97;;;;;;;8.61;71.77;96282.97;5077093;28;20032;-77
2021/05/26 02:05:37;;;;;;;2.83;0.60;;;;;;;8.48;73.02;96287.72;5051524;28;20032;-77
2021/05/26 02:08:03;;;;;;;2.50;0.97;;;;;;;8.49;74.59;96290.19;5062797;28;20130;-77
2021/05/26 02:13:14;;;;;;;1.70;0.80;;;;;;;8.40;74.10;96291.06;5086006;28;20122;-78
2021/05/26 02:15:41;;;;;;;9.07;1.63;;;;;;;8.29;74.91;96304.31;5064042;28;20024;-78
2021/05/26 02:18:07;;;;;;;4.23;0.70;;;;;;;8.26;74.80;96305.44;5063311;28;20086;-78
2021/05/26 02:20:33;;;;;;;4.40;1.33;;;;;;;8.22;75.17;96304.06;5064562;28;20423;-77
2021/05/26 02:22:59;;;;;;;5.57;2.70;;;;;;;8.17;75.65;96311.50;5062593;28;20055;-77
2021/05/26 02:25:25;;;;;;;2.77;0.80;;;;;;;8.08;76.65;96301.91;5071456;28;20462;-77
2021/05/26 02:27:51;;;;;;;2.73;0.83;;;;;;;8.06;78.48;96309.06;5067386;28;20038;-77
2021/05/26 02:30:22;;;;;;;3.90;1.33;;;;;;;8.10;77.40;96309.63;5069010;28;20098;-77
2021/05/26 02:32:48;;;;;;;6.27;1.30;;;;;;;8.02;80.05;96303.28;5068742;28;20033;-77
2021/05/26 02:35:19;;;;;;;4.30;0.90;;;;;;;8.00;79.49;96299.16;5063577;28;20081;-77
2021/05/26 02:37:45;;;;;;;2.80;0.80;;;;;;;7.84;80.60;96294.50;5068966;28;20038;-77
2021/05/26 02:40:12;;;;;;;3.17;1.00;;;;;;;7.82;80.73;96293.00;5068289;28;20024;-77
2021/05/26 02:42:38;;;;;;;4.23;1.10;;;;;;;7.76;81.76;96281.28;5072374;28;20039;-77
2021/05/26 02:45:05;;;;;;;2.87;0.90;;;;;;;7.71;82.01;96263.41;5061775;28;20028;-76
2021/05/26 02:47:31;;;;;;;5.57;1.23;;;;;;;7.65;82.67;96257.91;5073973;28;20088;-77
2021/05/26 02:49:58;;;;;;;4.83;1.00;;;;;;;7.54;82.00;96256.25;5066744;28;20031;-77
2021/05/26 02:52:24;;;;;;;3.90;0.93;;;;;;;7.54;81.80;96253.63;5062188;28;21062;-77
2021/05/26 02:55:02;;;;;;;3.50;1.20;;;;;;;7.41;83.26;96247.84;5074396;28;20024;-78
2021/05/26 02:57:29;;;;;;;4.27;0.97;;;;;;;7.44;82.36;96245.78;5090289;28;20051;-77
2021/05/26 03:00:17;;;;;;;4.93;0.93;;;;;;;7.45;82.68;96242.22;5071575;28;20042;-77
2021/05/26 03:03:02;;;;;;;2.17;0.50;;;;;;;7.43;82.62;96232.84;5079158;28;20131;-77
2021/05/26 03:05:30;;;;;;;4.47;1.43;;;;;;;7.41;81.89;96227.78;5067094;28;20031;-77
2021/05/26 03:07:58;;;;;;;5.20;0.77;;;;;;;7.41;82.58;96227.78;5076097;28;20023;-77
2021/05/26 03:10:24;;;;;;;5.77;1.10;;;;;;;7.42;81.57;96231.22;5062045;28;20423;-77
2021/05/26 03:12:59;;;;;;;6.17;2.30;;;;;;;7.43;81.77;96219.78;5059315;28;20115;-77
2021/05/26 03:15:26;;;;;;;3.97;0.87;;;;;;;7.46;82.55;96217.69;5060907;28;20886;-77
2021/05/26 03:17:52;;;;;;;3.40;0.83;;;;;;;7.43;81.98;96217.97;5056721;28;20015;-77
2021/05/26 03:20:18;;;;;;;5.17;1.00;;;;;;;7.41;82.02;96214.69;5064768;28;20516;-77
2021/05/26 03:22:44;;;;;;;2.60;0.70;;;;;;;7.45;81.86;96223.09;5079585;28;20119;-77
2021/05/26 03:25:28;;;;;;;5.03;1.00;;;;;;;7.49;81.86;96216.59;5084275;28;20051;-77
2021/05/26 03:28:02;;;;;;;5.60;0.80;;;;;;;7.45;81.65;96215.25;5055422;28;20505;-79
2021/05/26 03:30:28;;;;;;;2.00;0.73;;;;;;;7.52;81.20;96216.31;5068958;28;20032;-77
2021/05/26 03:32:54;;;;;;;3.53;0.83;;;;;;;7.50;81.96;96218.25;5054023;28;20903;-77
2021/05/26 03:35:20;;;;;;;2.97;0.70;;;;;;;7.52;82.90;96221.56;5071075;28;20035;-77
2021/05/26 03:37:48;;;;;;;4.40;0.90;;;;;;;7.52;82.02;96216.31;5083583;28;20966;-78
2021/05/26 03:40:16;;;;;;;3.67;0.83;;;;;;;7.53;82.49;96221.41;5058502;28;20040;-77
2021/05/26 03:42:49;;;;;;;4.50;1.30;;;;;;;7.55;82.95;96216.88;5081327;28;20077;-78
2021/05/26 03:45:37;;;;;;;5.57;1.20;;;;;;;7.57;82.89;96219.31;5062581;28;20028;-77
2021/05/26 03:48:10;;;;;;;2.30;0.90;;;;;;;7.63;82.64;96212.72;5077612;28;20900;-78
2021/05/26 03:50:37;;;;;;;2.63;0.80;;;;;;;7.62;82.55;96221.53;5057178;28;20031;-78
2021/05/26 03:53:05;;;;;;;3.33;0.80;;;;;;;7.62;83.02;96227.59;5070205;28;20674;-77
2021/05/26 03:55:32;;;;;;;3.13;0.60;;;;;;;7.60;83.22;96232.13;5063816;28;20050;-77
2021/05/26 03:58:18;;;;;;;3.13;0.73;;;;;;;7.56;83.73;96236.81;5067539;28;20035;-77
2021/05/26 04:00:44;;;;;;;4.00;1.10;;;;;;;7.59;83.44;96243.59;5061712;28;20043;-77
2021/05/26 04:03:17;;;;;;;4.27;1.03;;;;;;;7.63;83.78;96238.88;5055878;28;20377;-77
2021/05/26 04:05:43;;;;;;;6.33;0.97;;;;;;;7.68;84.15;96239.28;5058511;28;20036;-77
2021/05/26 04:08:12;;;;;;;1.53;0.60;;;;;;;7.58;84.77;96241.94;5058316;28;20036;-77
2021/05/26 04:10:38;;;;;;;3.87;1.10;;;;;;;7.55;85.71;96224.72;5056303;28;20032;-78
2021/05/26 04:13:20;;;;;;;6.67;1.00;;;;;;;7.55;85.92;96229.13;5074386;28;20034;-77
2021/05/26 04:15:55;;;;;;;3.53;1.13;;;;;;;7.62;86.52;96229.41;5069300;28;20481;-78
2021/05/26 04:18:26;;;;;;;2.60;0.73;;;;;;;7.58;86.32;96231.47;5080597;28;20107;-78
2021/05/26 04:24:40;;;;;;;1.87;0.80;;;;;;;7.51;87.67;96228.59;5079748;28;20054;-78
2021/05/26 04:27:08;;;;;;;5.53;1.00;;;;;;;7.50;87.56;96224.31;5073622;28;20028;-78
2021/05/26 04:29:34;;;;;;;5.83;1.30;;;;;;;7.57;88.75;96229.78;5053973;28;20079;-78
2021/05/26 04:32:01;;;;;;;1.83;0.83;;;;;;;7.58;88.32;96226.22;5068089;28;20043;-78
2021/05/26 04:34:27;;;;;;;3.83;0.90;;;;;;;7.51;88.65;96225.97;5060664;28;20035;-78
2021/05/26 04:37:01;;;;;;;3.80;1.20;;;;;;;7.50;89.32;96229.53;5055126;28;20036;-78
2021/05/26 04:39:27;;;;;;;3.53;1.30;;;;;;;7.50;89.56;96220.88;5069011;28;20646;-78
2021/05/26 04:41:53;;;;;;;3.63;1.20;;;;;;;7.48;89.43;96214.97;5055162;28;20115;-78
2021/05/26 04:44:18;;;;;;;1.77;0.80;;;;;;;7.51;90.92;96225.13;5059205;28;20031;-78
2021/05/26 04:46:45;;;;;;;4.73;1.00;;;;;;;7.48;90.08;96222.81;5074234;28;20393;-78
2021/05/26 04:49:12;;;;;;;4.30;1.33;;;;;;;7.48;90.69;96215.78;5074490;28;20042;-79
2021/05/26 04:51:38;;;;;;;8.13;2.23;;;;;;;7.56;90.48;96213.28;5051744;28;20143;-78
2021/05/26 04:54:04;;;;;;;7.40;2.77;;;;;;;7.51;90.23;96209.41;5052072;28;20661;-78
2021/05/26 04:56:38;;;;;;;9.73;4.70;;;;;;;7.59;90.09;96217.41;5071816;28;20110;-78
2021/05/26 04:59:04;;;;;;;10.80;4.53;;;;;;;7.68;89.26;96211.34;5054882;28;20101;-78
2021/05/26 05:01:30;;;;;;;7.63;2.83;;;;;;;7.74;88.80;96205.50;5064037;28;20016;-78
2021/05/26 05:03:56;;;;;;;5.47;1.90;;;;;;;7.70;88.18;96198.91;5062609;28;20035;-78
2021/05/26 05:06:22;;;;;;;5.33;1.47;;;;;;;7.81;88.67;96200.53;5061116;28;20073;-78
2021/05/26 05:08:48;;;;;;;4.13;1.30;;;;;;;7.84;88.55;96202.84;5056823;28;20036;-77
2021/05/26 05:11:13;;;;;;;6.63;1.53;;;;;;;7.87;88.49;96207.00;5058619;28;20020;-78
2021/05/26 05:13:39;;;;;;;4.87;1.17;;;;;;;7.91;88.04;96219.66;5062150;28;20036;-78
2021/05/26 05:16:05;;;;;;;4.90;1.20;;;;;;;8.01;87.78;96209.13;5053121;28;20032;-78
2021/05/26 05:18:31;;;;;;;8.07;1.43;;;;;;;8.05;87.67;96205.28;5055027;28;20028;-78
2021/05/26 05:20:56;;;;;;;2.47;1.00;;;;;;;8.07;88.51;96211.19;5055096;28;20031;-77
2021/05/26 05:23:42;;;;;;;5.03;1.30;;;;;;;8.10;88.32;96212.69;5056930;28;20035;-78
2021/05/26 05:26:08;;;;;;;5.90;1.77;;;;;;;8.02;88.43;96213.44;5060087;28;20673;-78
2021/05/26 05:28:34;;;;;;;5.53;1.20;;;;;;;7.98;89.31;96212.91;5066902;28;20085;-79
2021/05/26 05:31:00;;;;;;;6.13;1.40;;;;;;;8.02;89.20;96208.19;5073049;28;20039;-79
2021/05/26 05:33:28;;;;;;;3.40;1.10;;;;;;;8.01;89.25;96206.53;5054387;28;20028;-79
2021/05/26 05:35:55;;;;;;;5.70;1.30;;;;;;;8.02;88.68;96198.53;5044774;28;20135;-79
2021/05/26 05:38:21;;;;;;;5.33;1.10;;;;;;;8.01;88.21;96194.28;5082026;28;20073;-79
2021/05/26 05:40:48;;;;;;;4.47;1.10;;;;;;;8.03;88.00;96196.75;5055902;28;20651;-78
2021/05/26 05:43:15;;;;;;;3.60;1.17;;;;;;;8.02;88.09;96200.34;5061796;28;20111;-79
2021/05/26 05:45:41;;;;;;;7.03;1.70;;;;;;;8.00;88.14;96194.41;5054828;28;20035;-79
2021/05/26 05:48:07;;;;;;;6.67;1.37;;;;;;;8.00;88.23;96192.59;5064909;28;20021;-79
2021/05/26 05:50:33;;;;;;;6.00;1.20;;;;;;;8.03;87.93;96184.47;5058676;28;20114;-79
2021/05/26 05:52:59;;;;;;;4.27;1.27;;;;;;;8.09;86.78;96188.31;5059274;28;20110;-79
2021/05/26 05:55:24;;;;;;;5.33;1.27;;;;;;;8.18;87.62;96192.69;5063478;28;20042;-78
2021/05/26 05:57:50;;;;;;;4.30;1.57;;;;;;;8.12;87.75;96182.78;5052690;28;20476;-78
2021/05/26 06:00:24;;;;;;;7.00;1.70;;;;;;;8.08;87.69;96186.66;5072840;28;20051;-79
2021/05/26 06:02:50;;;;;;;3.60;0.90;;;;;;;8.07;86.97;96182.38;5058447;28;20036;-78
2021/05/26 06:05:16;;;;;;;4.33;0.97;;;;;;;8.09;87.02;96180.44;5051541;28;20660;-81
2021/05/26 06:07:41;;;;;;;6.40;1.40;;;;;;;8.18;88.23;96186.59;5069396;28;20032;-78
2021/05/26 06:10:09;;;;;;;3.87;1.40;;;;;;;8.19;87.55;96190.88;5081167;28;20778;-76
2021/05/26 06:12:35;;;;;;;1.87;0.90;;;;;;;8.03;87.46;96181.84;5077166;28;20036;-76
2021/05/26 06:15:02;;;;;;;5.47;1.30;;;;;;;8.07;87.50;96178.94;5071680;28;20024;-76
2021/05/26 06:17:28;;;;;;;6.93;1.60;;;;;;;8.10;88.44;96165.56;5076322;28;20024;-76
2021/05/26 06:19:54;;;;;;;8.60;2.03;;;;;;;8.10;87.50;96168.19;5063256;28;20057;-76
2021/05/26 06:22:19;;;;;;;5.77;1.10;;;;;;;8.08;87.10;96165.72;5077144;28;20039;-76
2021/05/26 06:24:45;;;;;;;5.67;1.10;;;;;;;8.07;87.69;96169.28;5082823;28;20097;-76
2021/05/26 06:27:11;;;;;;;4.13;1.70;;;;;;;8.15;88.02;96168.53;5059442;28;20028;-77
2021/05/26 06:29:36;;;;;;;3.03;1.00;;;;;;;8.17;88.05;96174.47;5064748;28;20036;-76
2021/05/26 06:32:02;;;;;;;5.63;1.17;;;;;;;8.15;88.03;96169.41;5082180;28;20126;-76
2021/05/26 06:34:28;;;;;;;5.30;1.10;;;;;;;8.13;88.09;96167.88;5076385;28;20071;-76
2021/05/26 06:36:54;;;;;;;2.13;0.87;;;;;;;8.14;87.75;96159.88;5072332;28;20042;-76
2021/05/26 06:39:20;;;;;;;3.40;0.90;;;;;;;8.13;88.09;96167.88;5070519;28;20059;-76
2021/05/26 06:41:45;;;;;;;4.83;1.37;;;;;;;8.11;88.60;96165.41;5060160;28;20032;-76
2021/05/26 06:44:11;;;;;;;4.27;1.00;;;;;;;8.14;88.79;96175.59;5081269;28;20024;-76
2021/05/26 06:46:41;;;;;;;7.33;1.03;;;;;;;8.17;88.92;96164.81;5077403;28;20031;-75
2021/05/26 06:49:08;;;;;;;3.90;1.03;;;;;;;8.23;89.82;96161.63;5063725;28;20474;-76
2021/05/26 06:51:34;;;;;;;4.37;1.00;;;;;;;8.34;89.48;96165.00;5065696;28;20027;-76
2021/05/26 06:54:00;;;;;;;5.73;1.43;;;;;;;8.26;89.16;96163.94;5056600;28;20020;-76
2021/05/26 06:56:25;;;;;;;6.97;1.63;;;;;;;8.23;89.62;96172.09;5066995;28;20035;-77
2021/05/26 06:58:51;;;;;;;2.63;1.10;;;;;;;8.28;89.35;96166.41;5060173;28;20063;-77
2021/05/26 07:01:21;;;;;;;3.03;1.00;;;;;;;8.26;89.58;96163.94;5062788;28;20623;-76
2021/05/26 07:03:49;;;;;;;5.63;1.40;;;;;;;8.33;90.03;96158.94;5063288;28;20040;-77
2021/05/26 07:06:14;;;;;;;6.33;1.63;;;;;;;8.37;89.93;96155.06;5065525;28;20528;-77
2021/05/26 07:08:40;;;;;;;3.03;0.93;;;;;;;8.39;89.38;96154.97;5064298;28;20032;-77
2021/05/26 07:11:06;;;;;;;3.67;1.10;;;;;;;8.39;89.39;96147.09;5056695;28;20849;-77
2021/05/26 07:13:32;;;;;;;2.97;1.00;;;;;;;8.53;90.03;96149.19;5061505;28;20035;-77
2021/05/26 07:15:57;;;;;;;4.13;1.73;;;;;;;8.53;89.15;96137.91;5064362;28;20031;-77
2021/05/26 07:18:33;;;;;;;5.30;1.10;;;;;;;8.47;89.11;96134.88;5074717;28;20489;-77
2021/05/26 07:20:59;;;;;;;7.60;1.10;;;;;;;8.62;89.39;96132.59;5056792;28;20380;-77
2021/05/26 07:23:25;;;;;;;4.13;1.40;;;;;;;8.58;89.50;96131.22;5064717;28;20031;-77
2021/05/26 07:25:51;;;;;;;5.33;1.17;;;;;;;8.80;89.76;96134.38;5073261;28;20101;-77
2021/05/26 07:28:17;;;;;;;3.23;1.10;;;;;;;8.83;88.30;96139.31;5049076;28;20028;-76
2021/05/26 07:30:43;;;;;;;7.37;1.30;;;;;;;8.77;87.41;96132.88;5062062;28;20032;-76
2021/05/26 07:33:10;;;;;;;4.67;1.37;;;;;;;9.04;87.25;96126.69;5080915;28;20032;-78
2021/05/26 07:35:35;;;;;;;3.27;1.07;;;;;;;8.87;88.25;96127.56;5057410;28;20028;-76
2021/05/26 07:38:01;;;;;;;4.20;1.20;;;;;;;8.68;88.19;96121.47;5070971;28;20754;-76
2021/05/26 07:40:27;;;;;;;2.53;1.17;;;;;;;8.52;88.71;96120.50;5060682;28;20115;-76
2021/05/26 07:42:53;;;;;;;3.57;1.17;;;;;;;8.55;88.96;96131.53;5068602;28;20485;-77
2021/05/26 07:45:19;;;;;;;3.80;1.27;;;;;;;8.62;87.42;96134.38;5073741;28;20785;-76
2021/05/26 07:47:44;;;;;;;6.87;1.77;;;;;;;8.59;87.64;96137.31;5066358;28;20028;-76
2021/05/26 07:50:11;;;;;;;6.33;1.20;;;;;;;8.55;88.62;96149.88;5104768;28;20115;-75
2021/05/26 07:52:37;;;;;;;4.10;1.30;;;;;;;8.48;89.51;96136.56;5077445;28;20023;-76
2021/05/26 07:55:03;;;;;;;3.67;1.20;;;;;;;8.57;89.97;96134.81;5069605;28;20090;-76
2021/05/26 07:57:28;;;;;;;4.73;1.33;;;;;;;8.39;90.39;96134.81;5060063;28;20028;-76
2021/05/26 07:59:54;;;;;;;4.60;1.23;;;;;;;8.49;90.22;96140.81;5077214;28;20043;-76
2021/05/26 08:02:20;;;;;;;4.47;1.43;;;;;;;8.51;90.35;96140.66;5076981;28;20409;-76
2021/05/26 08:04:48;;;;;;;4.87;1.20;;;;;;;8.49;90.82;96132.94;5074291;28;20070;-76
2021/05/26 08:07:13;;;;;;;6.47;1.60;;;;;;;8.43;90.49;96122.25;5075800;28;20967;-76
2021/05/26 08:09:43;;;;;;;5.07;1.37;;;;;;;8.59;90.43;96126.81;5097338;28;20047;-76
2021/05/26 08:12:10;;;;;;;5.17;1.50;;;;;;;8.59;89.63;96132.88;5075219;28;20038;-76
2021/05/26 08:14:36;;;;;;;4.27;1.40;;;;;;;8.54;89.04;96119.38;5081001;28;20027;-75
2021/05/26 08:17:03;;;;;;;5.00;1.27;;;;;;;8.62;90.16;96127.34;5077182;28;20474;-76
2021/05/26 08:19:29;;;;;;;8.67;1.90;;;;;;;8.65;88.72;96121.81;5077755;28;20031;-75
2021/05/26 08:21:55;;;;;;;2.93;1.07;;;;;;;8.64;89.56;96122.75;5075156;28;20044;-75
2021/05/26 08:24:21;;;;;;;5.37;1.40;;;;;;;8.71;89.99;96112.50;5082480;28;20031;-75
2021/05/26 08:26:51;;;;;;;4.70;1.23;;;;;;;8.76;89.87;96109.44;5092546;28;20036;-76
2021/05/26 08:29:17;;;;;;;7.70;1.93;;;;;;;8.68;90.22;96113.63;5092202;28;20027;-75
2021/05/26 08:31:43;;;;;;;7.33;2.00;;;;;;;8.80;89.70;96113.41;5074306;28;20053;-75
2021/05/26 08:34:10;;;;;;;8.00;2.07;;;;;;;8.72;89.81;96112.38;5093617;28;20114;-76
2021/05/26 08:36:39;;;;;;;7.73;1.83;;;;;;;8.73;89.29;96119.25;5071254;28;20032;-76
2021/05/26 08:39:06;;;;;;;3.97;1.30;;;;;;;8.64;89.78;96114.91;5073703;28;20704;-75
2021/05/26 08:41:32;;;;;;;6.77;2.00;;;;;;;8.87;90.73;96115.25;5073628;28;20097;-76
2021/05/26 08:43:57;;;;;;;6.37;1.77;;;;;;;8.70;89.46;96103.81;5071238;28;20490;-75
2021/05/26 08:46:23;;;;;;;5.17;2.90;;;;;;;8.87;89.69;96103.94;5082793;28;20031;-75
2021/05/26 08:48:53;;;;;;;7.13;1.97;;;;;;;8.87;88.45;96109.19;5067863;28;20028;-75
2021/05/26 08:51:21;;;;;;;7.30;1.80;;;;;;;8.86;88.72;96108.38;5070160;28;20036;-76
2021/05/26 08:53:47;;;;;;;6.53;2.63;;;;;;;8.86;87.14;96099.69;5073319;28;20138;-75
2021/05/26 08:56:13;;;;;;;7.13;1.70;;;;;;;8.81;88.87;96092.25;5073403;28;20047;-75
2021/05/26 08:58:45;;;;;;;5.17;1.60;;;;;;;8.96;89.12;96098.63;5076395;28;20027;-75
2021/05/26 09:01:11;;;;;;;5.67;1.60;;;;;;;8.97;87.26;96109.94;5076134;28;20023;-75
2021/05/26 09:03:36;;;;;;;7.03;2.00;;;;;;;8.96;87.82;96103.88;5085274;28;20022;-75
2021/05/26 09:06:09;;;;;;;6.30;1.93;;;;;;;9.00;88.62;96103.56;5080341;28;20539;-75
2021/05/26 09:08:45;;;;;;;8.70;2.30;;;;;;;9.00;88.57;96107.00;5069931;28;20078;-76
2021/05/26 09:11:11;;;;;;;10.93;1.90;;;;;;;8.83;87.79;96108.69;5090657;28;20190;-76
2021/05/26 09:13:39;;;;;;;6.40;1.70;;;;;;;8.93;87.85;96109.41;5083804;28;20664;-75
2021/05/26 09:16:24;;;;;;;5.33;1.80;;;;;;;8.94;87.19;96108.44;5094268;28;20663;-75
2021/05/26 09:19:04;;;;;;;7.87;2.53;;;;;;;9.01;87.75;96111.28;5071685;28;20115;-75
2021/05/26 09:21:38;;;;;;;6.43;3.20;;;;;;;9.02;87.77;96115.56;5100106;28;20039;-75
2021/05/26 09:24:19;;;;;;;6.50;1.90;;;;;;;9.02;86.78;96123.44;5080128;28;20054;-75
2021/05/26 09:26:58;;;;;;;7.27;1.93;;;;;;;8.92;87.44;96104.31;5076021;28;20047;-75
2021/05/26 09:29:35;;;;;;;7.33;3.77;;;;;;;8.97;87.77;96121.25;5086040;28;20616;-75
2021/05/26 09:32:24;;;;;;;9.83;2.33;;;;;;;8.92;88.91;96128.75;5072839;28;20401;-76
2021/05/26 09:34:52;;;;;;;8.20;2.07;;;;;;;8.87;86.78;96112.63;5076604;28;20036;-75
2021/05/26 09:37:23;;;;;;;4.67;2.47;;;;;;;8.94;88.17;96125.97;5076314;28;20486;-75
2021/05/26 09:40:02;;;;;;;7.87;2.33;;;;;;;9.03;89.24;96119.81;5084444;28;20040;-75
2021/05/26 09:42:35;;;;;;;9.70;2.50;;;;;;;9.01;89.64;96127.00;5084423;28;20077;-75
2021/05/26 09:45:08;;;;;;;6.03;1.95;;;;;;;8.82;88.77;96128.00;5081622;28;20032;-75
2021/05/26 09:47:49;;;;;;;7.93;2.65;;;;;;;8.70;87.29;96126.59;5063050;28;20041;-75
2021/05/26 09:50:28;;;;;;;7.57;2.40;;;;;;;8.82;88.21;96121.91;5076950;28;20044;-75
2021/05/26 09:53:07;;;;;;;11.60;2.63;;;;;;;8.84;89.84;96133.09;5076322;28;20040;-75
2021/05/26 09:55:48;;;;;;;6.90;2.17;;;;;;;8.85;89.34;96126.88;5071747;28;20198;-75
2021/05/26 09:58:15;;;;;;;8.67;2.03;;;;;;;8.63;87.97;96118.50;5103556;28;20035;-75
2021/05/26 10:00:43;;;;;;;8.40;2.37;;;;;;;8.65;88.94;96121.81;5072890;28;20024;-75
2021/05/26 10:03:09;;;;;;;9.03;2.53;;;;;;;8.73;89.02;96127.09;5060703;28;20028;-76
2021/05/26 10:05:35;;;;;;;6.67;2.00;;;;;;;8.72;89.30;96125.47;5061062;28;20020;-75
2021/05/26 10:08:20;;;;;;;10.87;2.80;;;;;;;8.65;89.66;96111.31;5080191;28;20074;-75
2021/05/26 10:11:04;;;;;;;7.57;2.67;;;;;;;8.78;89.06;96126.66;5102210;28;20114;-76
2021/05/26 10:13:34;;;;;;;11.03;2.43;;;;;;;8.78;89.09;96117.97;5061602;28;20051;-76
2021/05/26 10:16:00;;;;;;;6.07;2.20;;;;;;;8.69;89.04;96112.66;5077894;28;20472;-76
2021/05/26 10:18:26;;;;;;;6.73;2.90;;;;;;;8.61;89.18;96119.63;5078221;28;20112;-75
2021/05/26 10:20:52;;;;;;;6.40;1.97;;;;;;;8.74;89.77;96115.63;5057809;28;20048;-75
2021/05/26 10:23:19;;;;;;;9.03;3.23;;;;;;;8.76;90.03;96114.69;5067678;28;20031;-75
2021/05/26 10:25:48;;;;;;;8.73;2.87;;;;;;;8.83;89.15;96119.16;5085970;28;20024;-76
2021/05/26 10:28:31;;;;;;;10.50;2.63;;;;;;;8.79;90.01;96120.44;5077767;28;20027;-76
2021/05/26 10:30:58;;;;;;;12.23;4.50;;;;;;;8.88;89.38;96118.69;5063432;28;20040;-75
2021/05/26 10:33:39;;;;;;;11.20;2.50;;;;;;;8.82;89.08;96114.06;5082361;28;20039;-75
2021/05/26 10:36:08;;;;;;;13.27;3.30;;;;;;;9.00;90.40;96119.31;5061475;28;20437;-76
2021/05/26 10:39:27;;;;;;;7.93;2.93;;;;;;;9.02;89.20;96118.19;5062149;28;20028;-76
2021/05/26 10:41:53;;;;;;;10.13;3.40;;;;;;;8.93;89.71;96111.22;4983017;28;20045;-76
2021/05/26 10:47:47;;;;;;;6.67;2.60;;;;;;;8.94;89.37;96112.84;5083821;28;20059;-76
2021/05/26 10:50:43;;;;;;;10.17;2.67;;;;;;;8.88;90.02;96116.06;5059670;28;20444;-75
2021/05/26 10:53:10;;;;;;;9.80;2.73;;;;;;;9.02;90.34;96118.19;5053714;28;20028;-76
2021/05/26 10:55:51;;;;;;;8.80;2.63;;;;;;;8.95;91.21;96119.75;5083950;28;20020;-75
2021/05/26 10:58:42;;;;;;;12.90;2.77;;;;;;;9.03;91.16;96113.75;5059015;28;20431;-75
2021/05/26 11:01:13;;;;;;;8.80;3.77;;;;;;;9.13;90.71;96119.72;5070856;28;20036;-75
2021/05/26 11:03:43;;;;;;;8.47;2.97;;;;;;;9.21;90.15;96110.09;5065369;28;20028;-75
2021/05/26 11:06:18;;;;;;;6.97;3.03;;;;;;;9.21;89.93;96107.47;5059008;28;20627;-75
2021/05/26 11:08:48;;;;;;;8.77;2.87;;;;;;;9.18;90.41;96120.91;5080363;28;20063;-75
2021/05/26 11:14:04;;;;;;;8.70;2.90;;;;;;;9.42;90.44;96120.25;5069825;28;20566;-75
2021/05/26 11:16:42;;;;;;;6.43;2.73;;;;;;;9.34;86.93;96114.13;5062079;28;20097;-76
2021/05/26 11:19:12;;;;;;;6.60;2.37;;;;;;;9.25;88.21;96110.63;5071188;28;20043;-75
2021/05/26 11:21:58;;;;;;;5.97;2.17;;;;;;;9.43;87.96;96106.16;5085677;28;20038;-75
2021/05/26 11:24:35;;;;;;;7.83;2.50;;;;;;;9.33;86.72;96109.88;5057959;28;20036;-75
2021/05/26 11:27:13;;;;;;;7.03;2.07;;;;;;;9.59;89.00;96108.06;5054448;28;20036;-75
2021/05/26 11:29:39;;;;;;;5.67;1.73;;;;;;;9.67;88.48;96102.84;5089368;28;20441;-75
2021/05/26 11:32:11;;;;;;;8.00;2.00;;;;;;;9.62;85.47;96093.75;5060241;28;20118;-76
2021/05/26 11:34:40;;;;;;;5.32;1.77;;;;;;;9.71;86.47;96097.25;5074218;28;20437;-75
2021/05/26 11:37:07;;;;;;;3.50;1.30;;;;;;;9.81;85.62;96100.59;5067523;28;20036;-76
2021/05/26 11:39:34;;;;;;;5.47;1.53;;;;;;;9.89;85.37;96101.47;5049288;28;20039;-75
2021/05/26 11:42:14;;;;;;;5.83;1.67;;;;;;;10.21;85.45;96093.84;5075792;28;20086;-75
2021/05/26 11:44:52;;;;;;;5.77;1.83;;;;;;;10.31;85.43;96094.56;5070413;28;20105;-75
2021/05/26 11:47:34;;;;;;;4.83;1.57;;;;;;;10.06;85.28;96097.09;5061328;28;20032;-76
2021/05/26 11:50:02;;;;;;;5.03;1.50;;;;;;;10.07;85.59;96092.66;5054231;28;20024;-76
2021/05/26 11:52:28;;;;;;;4.23;1.23;;;;;;;10.24;84.02;96098.78;5060746;28;20024;-75
2021/05/26 11:54:59;;;;;;;3.57;1.70;;;;;;;10.23;84.83;96089.22;5072457;28;20046;-76
2021/05/26 11:57:52;;;;;;;4.77;1.73;;;;;;;10.27;84.47;96093.25;5077090;28;20390;-76
2021/05/26 12:00:34;;;;;;;4.70;1.50;;;;;;;10.21;85.29;96083.31;5063247;28;20071;-75
2021/05/26 12:03:00;;;;;;;5.53;1.63;;;;;;;10.20;85.34;96093.03;5072300;28;20114;-76
2021/05/26 12:05:35;;;;;;;4.43;1.47;;;;;;;10.30;84.30;96085.03;5080711;28;21309;-76